createdAt,value
2023-04-03T00:02:02.728Z,6.83
2023-04-03T00:04:29.504Z,6.83
2023-04-03T00:06:56.141Z,6.83
2023-04-03T00:09:22.744Z,6.82
2023-04-03T00:11:49.256Z,6.79
2023-04-03T00:14:15.845Z,6.78
2023-04-03T00:16:42.459Z,6.70
2023-04-03T00:19:09.466Z,6.65
2023-04-03T00:21:36.662Z,6.61
2023-04-03T00:24:03.583Z,6.63
2023-04-03T00:26:30.377Z,6.62
2023-04-03T00:28:57.176Z,6.58
2023-04-03T00:31:23.845Z,6.58
2023-04-03T00:33:50.670Z,6.59
2023-04-03T00:36:17.334Z,6.58
2023-04-03T00:38:43.964Z,6.59
2023-04-03T00:41:10.636Z,6.61
2023-04-03T00:43:37.370Z,6.56
2023-04-03T00:46:04.395Z,6.55
2023-04-03T00:48:49.785Z,6.60
2023-04-03T00:51:22.824Z,6.52
2023-04-03T00:53:54.175Z,6.48
2023-04-03T00:56:24.589Z,6.51
2023-04-03T00:58:57.337Z,6.47
2023-04-03T01:01:26.943Z,6.48
2023-04-03T01:03:53.936Z,6.41
2023-04-03T01:06:27.076Z,6.38
2023-04-03T01:08:53.960Z,6.59
2023-04-03T01:11:21.988Z,6.34
2023-04-03T01:13:50.358Z,6.32
2023-04-03T01:16:17.345Z,6.27
2023-04-03T01:18:45.688Z,6.24
2023-04-03T01:21:51.722Z,6.28
2023-04-03T01:24:35.844Z,6.23
2023-04-03T01:27:06.994Z,6.14
2023-04-03T01:29:33.699Z,6.18
2023-04-03T01:32:02.723Z,6.12
2023-04-03T01:34:30.905Z,6.14
2023-04-03T01:36:57.717Z,6.10
2023-04-03T01:39:24.693Z,6.05
2023-04-03T01:41:52.133Z,6.06
2023-04-03T01:44:25.711Z,6.08
2023-04-03T01:46:52.597Z,6.07
2023-04-03T01:49:20.236Z,6.08
2023-04-03T01:51:47.087Z,6.05
2023-04-03T01:54:13.752Z,6.06
2023-04-03T01:59:36.030Z,6.02
2023-04-03T02:02:02.945Z,5.99
2023-04-03T02:04:29.519Z,5.89
2023-04-03T02:06:56.124Z,5.90
2023-04-03T02:09:22.913Z,5.87
2023-04-03T02:11:49.413Z,5.87
2023-04-03T02:14:16.068Z,5.86
2023-04-03T02:16:42.729Z,5.77
2023-04-03T02:19:09.802Z,5.83
2023-04-03T02:21:36.359Z,5.78
2023-04-03T02:24:02.991Z,5.73
2023-04-03T02:26:29.538Z,5.74
2023-04-03T02:28:56.132Z,5.73
2023-04-03T02:31:23.832Z,5.70
2023-04-03T02:33:51.676Z,5.67
2023-04-03T02:36:18.698Z,5.65
2023-04-03T02:38:51.916Z,5.65
2023-04-03T02:41:18.425Z,5.62
2023-04-03T02:43:45.120Z,5.60
2023-04-03T02:46:11.781Z,5.60
2023-04-03T02:48:39.610Z,5.60
2023-04-03T02:51:06.863Z,5.54
2023-04-03T02:53:33.475Z,5.55
2023-04-03T02:56:06.673Z,5.55
2023-04-03T02:58:33.477Z,5.51
2023-04-03T03:01:01.080Z,5.52
2023-04-03T03:03:27.749Z,5.43
2023-04-03T03:06:14.125Z,5.54
2023-04-03T03:08:41.007Z,5.45
2023-04-03T03:11:08.317Z,5.44
2023-04-03T03:13:35.259Z,5.37
2023-04-03T03:16:02.230Z,5.32
2023-04-03T03:18:30.408Z,5.33
2023-04-03T03:20:58.881Z,5.36
2023-04-03T03:23:27.180Z,5.36
2023-04-03T03:25:58.799Z,5.32
2023-04-03T03:28:25.652Z,5.34
2023-04-03T03:30:52.435Z,5.31
2023-04-03T03:33:19.817Z,5.28
2023-04-03T03:35:46.832Z,5.23
2023-04-03T03:38:13.470Z,5.25
2023-04-03T03:40:40.392Z,5.20
2023-04-03T03:43:07.775Z,5.21
2023-04-03T03:45:35.207Z,5.20
2023-04-03T03:48:02.829Z,5.20
2023-04-03T03:50:29.532Z,5.19
2023-04-03T03:52:56.344Z,5.14
2023-04-03T03:55:22.942Z,5.19
2023-04-03T03:57:53.280Z,5.18
2023-04-03T04:00:21.178Z,5.15
2023-04-03T04:02:54.722Z,5.12
2023-04-03T04:05:23.602Z,5.08
2023-04-03T04:07:50.681Z,5.07
2023-04-03T04:10:17.459Z,5.03
2023-04-03T04:12:45.509Z,4.97
2023-04-03T04:15:12.564Z,4.95
2023-04-03T04:17:39.702Z,4.88
2023-04-03T04:20:11.968Z,4.89
2023-04-03T04:22:40.065Z,4.87
2023-04-03T04:25:07.165Z,4.86
2023-04-03T04:27:34.429Z,4.79
2023-04-03T04:30:01.992Z,4.77
2023-04-03T04:32:28.766Z,4.76
2023-04-03T04:34:55.769Z,4.74
2023-04-03T04:37:23.052Z,4.70
2023-04-03T04:39:49.853Z,4.69
2023-04-03T04:42:17.867Z,4.69
2023-04-03T04:44:46.758Z,4.69
2023-04-03T04:47:14.638Z,4.69
2023-04-03T04:49:42.122Z,4.62
2023-04-03T04:52:09.619Z,4.63
2023-04-03T04:54:37.194Z,4.60
2023-04-03T04:57:03.780Z,4.64
2023-04-03T04:59:31.110Z,4.60
2023-04-03T05:01:59.012Z,4.63
2023-04-03T05:04:26.877Z,4.60
2023-04-03T05:07:00.574Z,4.56
2023-04-03T05:09:29.528Z,4.54
2023-04-03T05:11:57.230Z,4.53
2023-04-03T05:14:27.092Z,4.55
2023-04-03T05:16:55.682Z,4.50
2023-04-03T05:19:25.635Z,4.51
2023-04-03T05:21:52.408Z,4.48
2023-04-03T05:24:19.157Z,4.50
2023-04-03T05:26:45.715Z,4.50
2023-04-03T05:29:13.560Z,4.49
2023-04-03T05:31:42.182Z,4.45
2023-04-03T05:34:11.401Z,4.39
2023-04-03T05:36:39.626Z,4.41
2023-04-03T05:39:08.801Z,4.41
2023-04-03T05:41:38.405Z,4.44
2023-04-03T05:44:05.478Z,4.43
2023-04-03T05:46:32.282Z,4.43
2023-04-03T05:49:04.026Z,4.41
2023-04-03T05:51:37.652Z,4.44
2023-04-03T05:54:31.341Z,4.43
2023-04-03T05:57:07.998Z,4.45
2023-04-03T05:59:34.682Z,4.46
2023-04-03T06:02:02.063Z,4.47
2023-04-03T06:04:28.913Z,4.47
2023-04-03T06:06:58.915Z,4.44
2023-04-03T06:09:28.065Z,4.64
2023-04-03T06:11:54.792Z,4.47
2023-04-03T06:14:23.295Z,4.46
2023-04-03T06:16:50.509Z,4.45
2023-04-03T06:19:17.156Z,4.45
2023-04-03T06:21:48.209Z,4.49
2023-04-03T06:24:16.729Z,4.51
2023-04-03T06:26:43.621Z,4.55
2023-04-03T06:29:10.282Z,4.54
2023-04-03T06:31:40.668Z,4.56
2023-04-03T06:34:09.645Z,4.62
2023-04-03T06:36:36.629Z,4.63
2023-04-03T06:39:04.278Z,4.61
2023-04-03T06:41:31.814Z,4.66
2023-04-03T06:43:59.053Z,4.64
2023-04-03T06:46:27.554Z,4.64
2023-04-03T06:48:55.243Z,4.69
2023-04-03T06:51:24.706Z,4.66
2023-04-03T06:53:52.942Z,4.64
2023-04-03T06:56:20.609Z,4.73
2023-04-03T06:58:47.569Z,4.77
2023-04-03T07:01:18.712Z,4.80
2023-04-03T07:03:45.379Z,4.78
2023-04-03T07:06:13.489Z,4.78
2023-04-03T07:08:40.409Z,4.84
2023-04-03T07:11:07.701Z,4.84
2023-04-03T07:13:34.767Z,4.88
2023-04-03T07:16:02.136Z,4.79
2023-04-03T07:18:28.743Z,4.92
2023-04-03T07:20:55.608Z,4.97
2023-04-03T07:23:22.083Z,5.03
2023-04-03T07:25:51.107Z,5.04
2023-04-03T07:28:19.401Z,5.05
2023-04-03T07:31:14.553Z,5.15
2023-04-03T07:33:42.581Z,5.07
2023-04-03T07:36:10.531Z,5.14
2023-04-03T07:38:37.811Z,5.12
2023-04-03T07:41:05.512Z,5.22
2023-04-03T07:43:32.404Z,5.23
2023-04-03T07:45:59.871Z,5.24
2023-04-03T07:48:27.548Z,5.23
2023-04-03T07:50:54.261Z,5.27
2023-04-03T07:53:20.986Z,5.33
2023-04-03T07:55:49.227Z,5.35
2023-04-03T07:58:19.383Z,5.34
2023-04-03T08:00:46.642Z,5.40
2023-04-03T08:03:14.422Z,5.46
2023-04-03T08:05:42.923Z,5.50
2023-04-03T08:08:11.691Z,5.53
2023-04-03T08:10:38.451Z,5.60
2023-04-03T08:13:06.087Z,5.63
2023-04-03T08:15:32.939Z,5.66
2023-04-03T08:18:01.567Z,5.73
2023-04-03T08:20:29.284Z,5.73
2023-04-03T08:22:55.908Z,5.79
2023-04-03T08:25:22.557Z,5.81
2023-04-03T08:27:49.108Z,5.85
2023-04-03T08:30:15.779Z,5.84
2023-04-03T08:32:45.788Z,5.89
2023-04-03T08:35:12.969Z,5.95
2023-04-03T08:37:40.286Z,5.97
2023-04-03T08:40:12.073Z,6.01
2023-04-03T08:42:54.952Z,6.05
2023-04-03T08:45:41.695Z,6.13
2023-04-03T08:48:15.492Z,6.14
2023-04-03T08:50:46.220Z,6.17
2023-04-03T08:53:24.391Z,6.25
2023-04-03T08:55:54.313Z,6.26
2023-04-03T08:58:27.578Z,6.30
2023-04-03T09:00:57.507Z,6.33
2023-04-03T09:03:24.995Z,6.37
2023-04-03T09:06:06.926Z,6.50
2023-04-03T09:09:08.589Z,6.59
2023-04-03T09:11:54.698Z,6.60
2023-04-03T09:14:23.860Z,6.59
2023-04-03T09:16:58.754Z,6.64
2023-04-03T09:19:49.757Z,6.72
2023-04-03T09:22:25.934Z,6.79
2023-04-03T09:25:14.433Z,6.87
2023-04-03T09:27:41.383Z,6.82
2023-04-03T09:30:14.995Z,6.90
2023-04-03T09:32:42.097Z,6.91
2023-04-03T09:35:20.711Z,6.98
2023-04-03T09:38:14.102Z,6.96
2023-04-03T09:40:43.738Z,7.04
2023-04-03T09:43:32.244Z,7.12
2023-04-03T09:46:32.051Z,7.20
2023-04-03T09:49:08.075Z,7.19
2023-04-03T09:51:36.731Z,7.24
2023-04-03T09:54:27.138Z,7.37
2023-04-03T09:56:56.602Z,7.35
2023-04-03T09:59:23.703Z,7.38
2023-04-03T10:02:40.086Z,7.54
2023-04-03T10:05:26.587Z,7.52
2023-04-03T10:08:01.804Z,7.50
2023-04-03T10:10:30.585Z,7.54
2023-04-03T10:13:21.363Z,7.61
2023-04-03T10:15:57.174Z,7.61
2023-04-03T10:18:37.240Z,7.73
2023-04-03T10:21:17.557Z,7.72
2023-04-03T10:24:11.016Z,7.75
2023-04-03T10:26:56.549Z,7.80
2023-04-03T10:29:56.658Z,7.91
2023-04-03T10:32:46.570Z,7.95
2023-04-03T10:35:26.239Z,7.99
2023-04-03T10:38:30.296Z,8.13
2023-04-03T10:41:02.948Z,8.08
2023-04-03T10:44:05.153Z,8.21
2023-04-03T10:49:31.223Z,8.37
2023-04-03T10:52:19.573Z,8.43
2023-04-03T10:55:01.500Z,8.44
2023-04-03T10:57:30.003Z,8.38
2023-04-03T11:00:02.301Z,8.47
2023-04-03T11:02:58.391Z,8.50
2023-04-03T11:05:33.499Z,8.59
2023-04-03T11:08:06.401Z,8.59
2023-04-03T11:10:43.860Z,8.68
2023-04-03T11:13:24.115Z,8.71
2023-04-03T11:15:53.925Z,8.67
2023-04-03T11:18:28.204Z,8.75
2023-04-03T11:21:05.000Z,8.86
2023-04-03T11:23:49.100Z,8.93
2023-04-03T11:26:19.403Z,8.93
2023-04-03T11:28:47.158Z,8.95
2023-04-03T11:31:50.848Z,9.22
2023-04-03T11:34:28.885Z,9.22
2023-04-03T11:37:01.727Z,9.25
2023-04-03T11:39:35.793Z,9.30
2023-04-03T11:42:20.693Z,9.41
2023-04-03T11:44:47.374Z,9.37
2023-04-03T11:47:49.159Z,9.53
2023-04-03T11:50:47.307Z,9.60
2023-04-03T11:53:13.749Z,9.59
2023-04-03T11:55:49.033Z,9.64
2023-04-03T11:58:21.186Z,9.69
2023-04-03T12:00:53.731Z,9.72
2023-04-03T12:03:30.186Z,9.75
2023-04-03T12:06:14.476Z,9.81
2023-04-03T12:08:41.262Z,9.81
2023-04-03T12:11:13.575Z,9.88
2023-04-03T12:13:45.805Z,9.94
2023-04-03T12:16:38.538Z,10.09
2023-04-03T12:19:41.230Z,10.20
2023-04-03T12:22:21.704Z,10.25
2023-04-03T12:24:51.172Z,10.24
2023-04-03T12:27:35.748Z,10.37
2023-04-03T12:30:14.633Z,10.29
2023-04-03T12:32:44.129Z,10.33
2023-04-03T12:35:22.446Z,10.45
2023-04-03T12:38:26.883Z,10.52
2023-04-03T12:41:47.746Z,10.55
2023-04-03T12:44:28.302Z,10.58
2023-04-03T12:46:54.900Z,10.66
2023-04-03T12:49:30.108Z,10.77
2023-04-03T12:51:56.997Z,10.81
2023-04-03T12:54:30.294Z,10.83
2023-04-03T12:57:17.218Z,10.94
2023-04-03T12:59:47.456Z,10.93
2023-04-03T13:02:27.035Z,11.08
2023-04-03T13:04:58.728Z,11.07
2023-04-03T13:07:31.732Z,11.12
2023-04-03T13:10:07.824Z,11.16
2023-04-03T13:12:35.713Z,11.21
2023-04-03T13:15:13.562Z,11.25
2023-04-03T13:17:40.716Z,11.26
2023-04-03T13:20:38.205Z,11.43
2023-04-03T13:23:09.150Z,11.43
2023-04-03T13:25:41.291Z,11.45
2023-04-03T13:28:13.903Z,11.54
2023-04-03T13:30:42.111Z,11.60
2023-04-03T13:33:38.908Z,11.75
2023-04-03T13:36:05.578Z,11.70
2023-04-03T13:38:34.633Z,11.70
2023-04-03T13:41:22.102Z,11.73
2023-04-03T13:43:48.706Z,11.84
2023-04-03T13:46:15.496Z,11.92
2023-04-03T13:48:45.502Z,12.06
2023-04-03T13:51:15.679Z,12.15
2023-04-03T13:53:46.258Z,12.11
2023-04-03T13:56:34.678Z,12.18
2023-04-03T13:59:13.066Z,12.15
2023-04-03T14:01:49.347Z,12.19
2023-04-03T14:04:25.296Z,12.27
2023-04-03T14:06:52.751Z,12.33
2023-04-03T14:09:20.812Z,12.31
2023-04-03T14:11:49.851Z,12.46
2023-04-03T14:14:20.275Z,12.52
2023-04-03T14:16:52.042Z,12.51
2023-04-03T14:19:21.381Z,12.72
2023-04-03T14:21:48.037Z,12.48
2023-04-03T14:24:14.644Z,12.58
2023-04-03T14:26:42.016Z,12.69
2023-04-03T14:29:11.657Z,12.72
2023-04-03T14:31:38.342Z,12.84
2023-04-03T14:34:04.855Z,12.84
2023-04-03T14:36:32.213Z,12.77
2023-04-03T14:38:59.401Z,12.84
2023-04-03T14:41:27.704Z,12.85
2023-04-03T14:43:54.844Z,12.99
2023-04-03T14:46:48.282Z,13.01
2023-04-03T14:49:25.631Z,13.06
2023-04-03T14:51:53.569Z,13.10
2023-04-03T14:54:28.263Z,13.15
2023-04-03T14:56:56.568Z,13.07
2023-04-03T14:59:23.726Z,13.16
2023-04-03T15:01:50.357Z,13.14
2023-04-03T15:04:21.732Z,13.11
2023-04-03T15:06:50.273Z,13.12
2023-04-03T15:09:26.509Z,13.26
2023-04-03T15:11:54.899Z,13.35
2023-04-03T15:14:35.404Z,13.36
2023-04-03T15:17:05.822Z,13.38
2023-04-03T15:19:38.686Z,13.52
2023-04-03T15:22:05.927Z,13.55
2023-04-03T15:24:32.540Z,13.52
2023-04-03T15:27:00.628Z,13.65
2023-04-03T15:29:27.818Z,13.64
2023-04-03T15:31:54.689Z,13.70
2023-04-03T15:34:22.819Z,13.72
2023-04-03T15:36:51.031Z,13.67
2023-04-03T15:39:17.615Z,13.77
2023-04-03T15:41:44.648Z,13.79
2023-04-03T15:44:11.129Z,13.83
2023-04-03T15:46:38.249Z,14.00
2023-04-03T15:49:05.268Z,13.99
2023-04-03T15:51:32.654Z,14.02
2023-04-03T15:53:59.209Z,13.97
2023-04-03T15:56:26.015Z,13.99
2023-04-03T15:58:52.534Z,13.96
2023-04-03T16:01:19.327Z,13.84
2023-04-03T16:03:46.472Z,13.92
2023-04-03T16:06:15.528Z,14.07
2023-04-03T16:08:43.339Z,14.10
2023-04-03T16:11:10.428Z,14.13
2023-04-03T16:13:37.114Z,14.03
2023-04-03T16:16:05.174Z,14.02
2023-04-03T16:18:32.116Z,13.99
2023-04-03T16:20:58.766Z,14.07
2023-04-03T16:23:25.394Z,14.05
2023-04-03T16:25:51.930Z,13.98
2023-04-03T16:28:19.120Z,14.07
2023-04-03T16:30:47.038Z,14.08
2023-04-03T16:33:14.436Z,14.13
2023-04-03T16:35:43.089Z,14.02
2023-04-03T16:38:09.643Z,14.13
2023-04-03T16:40:36.438Z,14.15
2023-04-03T16:43:03.142Z,14.14
2023-04-03T16:45:29.964Z,13.99
2023-04-03T16:47:56.604Z,13.95
2023-04-03T16:50:23.184Z,13.95
2023-04-03T16:52:50.013Z,13.90
2023-04-03T16:55:16.704Z,13.90
2023-04-03T16:57:43.261Z,13.91
2023-04-03T17:00:10.717Z,13.85
2023-04-03T17:02:37.296Z,13.79
2023-04-03T17:05:04.136Z,13.78
2023-04-03T17:07:30.655Z,13.82
2023-04-03T17:09:57.578Z,13.73
2023-04-03T17:12:25.030Z,13.75
2023-04-03T17:14:51.760Z,13.69
2023-04-03T17:17:24.077Z,13.72
2023-04-03T17:19:50.785Z,13.61
2023-04-03T17:22:18.045Z,13.59
2023-04-03T17:24:44.969Z,13.50
2023-04-03T17:27:11.456Z,13.54
2023-04-03T17:29:38.013Z,13.50
2023-04-03T17:32:04.710Z,13.48
2023-04-03T17:34:31.357Z,13.41
2023-04-03T17:36:58.031Z,13.27
2023-04-03T17:39:24.609Z,13.15
2023-04-03T17:41:51.337Z,13.12
2023-04-03T17:44:17.921Z,13.05
2023-04-03T17:46:44.775Z,12.93
2023-04-03T17:49:14.804Z,12.85
2023-04-03T17:51:42.165Z,12.76
2023-04-03T17:54:08.731Z,12.64
2023-04-03T17:56:35.515Z,12.43
2023-04-03T17:59:02.165Z,12.43
2023-04-03T18:01:31.857Z,12.30
2023-04-03T18:04:01.121Z,12.25
2023-04-03T18:06:42.768Z,12.12
2023-04-03T18:09:15.260Z,12.06
2023-04-03T18:11:42.848Z,12.03
2023-04-03T18:14:10.487Z,11.81
2023-04-03T18:16:37.183Z,11.80
2023-04-03T18:19:20.581Z,11.74
2023-04-03T18:21:48.343Z,11.66
2023-04-03T18:24:17.889Z,11.56
2023-04-03T18:26:50.012Z,11.53
2023-04-03T18:29:16.727Z,11.46
2023-04-03T18:31:47.792Z,11.46
2023-04-03T18:34:14.365Z,11.42
2023-04-03T18:36:41.014Z,11.40
2023-04-03T18:39:07.624Z,11.34
2023-04-03T18:41:35.638Z,11.37
2023-04-03T18:44:04.788Z,11.31
2023-04-03T18:46:32.566Z,11.28
2023-04-03T18:48:59.667Z,11.27
2023-04-03T18:51:26.837Z,11.27
2023-04-03T18:53:53.419Z,11.26
2023-04-03T18:56:19.944Z,11.13
2023-04-03T18:58:46.506Z,11.17
2023-04-03T19:01:14.220Z,11.15
2023-04-03T19:03:41.148Z,11.05
2023-04-03T19:06:08.056Z,11.10
2023-04-03T19:08:35.197Z,11.05
2023-04-03T19:11:01.833Z,10.99
2023-04-03T19:13:28.329Z,10.89
2023-04-03T19:15:58.881Z,10.90
2023-04-03T19:18:28.977Z,10.80
2023-04-03T19:20:57.116Z,10.79
2023-04-03T19:23:24.565Z,10.78
2023-04-03T19:25:59.495Z,10.74
2023-04-03T19:28:26.284Z,10.72
2023-04-03T19:30:53.419Z,10.70
2023-04-03T19:33:20.841Z,10.72
2023-04-03T19:35:47.442Z,10.66
2023-04-03T19:38:14.037Z,10.55
2023-04-03T19:40:43.652Z,10.55
2023-04-03T19:43:14.639Z,10.50
2023-04-03T19:45:41.664Z,10.44
2023-04-03T19:48:08.533Z,10.37
2023-04-03T19:50:35.709Z,10.45
2023-04-03T19:53:02.702Z,10.37
2023-04-03T19:55:32.114Z,10.37
2023-04-03T19:57:59.722Z,10.33
2023-04-03T20:00:26.713Z,10.29
2023-04-03T20:02:53.349Z,10.28
2023-04-03T20:05:20.138Z,10.19
2023-04-03T20:07:47.728Z,10.10
2023-04-03T20:10:15.474Z,10.12
2023-04-03T20:12:42.785Z,10.07
2023-04-03T20:15:10.533Z,10.02
2023-04-03T20:17:37.630Z,10.06
2023-04-03T20:20:04.994Z,10.01
2023-04-03T20:22:32.657Z,9.98
2023-04-03T20:25:06.122Z,9.94
2023-04-03T20:27:34.625Z,9.91
2023-04-03T20:30:04.060Z,9.89
2023-04-03T20:32:31.184Z,9.87
2023-04-03T20:35:04.298Z,9.76
2023-04-03T20:37:31.485Z,9.74
2023-04-03T20:39:58.018Z,9.75
2023-04-03T20:42:24.622Z,9.70
2023-04-03T20:44:51.136Z,9.68
2023-04-03T20:47:17.717Z,9.67
2023-04-03T20:49:45.497Z,9.60
2023-04-03T20:52:12.166Z,9.57
2023-04-03T20:54:39.590Z,9.55
2023-04-03T20:57:06.241Z,9.51
2023-04-03T20:59:34.011Z,9.44
2023-04-03T21:02:00.797Z,9.39
2023-04-03T21:04:36.670Z,9.31
2023-04-03T21:07:41.228Z,9.39
2023-04-03T21:10:45.300Z,9.33
2023-04-03T21:13:49.594Z,9.26
2023-04-03T21:16:16.068Z,9.16
2023-04-03T21:19:03.990Z,9.04
2023-04-03T21:21:31.153Z,9.01
2023-04-03T21:23:57.761Z,8.92
2023-04-03T21:26:26.574Z,8.83
2023-04-03T21:28:53.967Z,8.82
2023-04-03T21:31:21.937Z,8.78
2023-04-03T21:33:49.058Z,8.75
2023-04-03T21:36:16.225Z,8.71
2023-04-03T21:38:45.245Z,8.58
2023-04-03T21:41:11.798Z,8.57
2023-04-03T21:43:38.423Z,8.56
2023-04-03T21:46:05.658Z,8.53
2023-04-03T21:48:32.212Z,8.47
2023-04-03T21:51:02.455Z,8.45
2023-04-03T21:53:30.680Z,8.45
2023-04-03T21:55:57.554Z,8.38
2023-04-03T21:58:30.348Z,8.37
2023-04-03T22:00:56.972Z,8.35
2023-04-03T22:03:24.058Z,8.26
2023-04-03T22:05:50.779Z,8.23
2023-04-03T22:08:17.935Z,8.19
2023-04-03T22:10:45.016Z,8.12
2023-04-03T22:13:11.618Z,8.09
2023-04-03T22:15:42.879Z,8.08
2023-04-03T22:18:10.910Z,8.04
2023-04-03T22:20:37.543Z,7.94
2023-04-03T22:23:05.845Z,7.95
2023-04-03T22:25:33.176Z,7.92
2023-04-03T22:27:59.793Z,7.85
2023-04-03T22:30:26.412Z,7.80
2023-04-03T22:32:53.003Z,7.75
2023-04-03T22:35:19.664Z,7.65
2023-04-03T22:37:46.163Z,7.60
2023-04-03T22:40:13.554Z,7.55
2023-04-03T22:42:40.122Z,7.52
2023-04-03T22:45:07.281Z,7.50
2023-04-03T22:47:33.897Z,7.44
2023-04-03T22:50:00.386Z,7.42
2023-04-03T22:52:26.916Z,7.40
2023-04-03T22:54:53.509Z,7.35
2023-04-03T22:57:20.047Z,7.40
2023-04-03T22:59:46.593Z,7.36
2023-04-03T23:02:13.488Z,7.34
2023-04-03T23:04:40.153Z,7.34
2023-04-03T23:07:06.715Z,7.30
2023-04-03T23:09:33.356Z,7.28
2023-04-03T23:11:59.907Z,7.24
2023-04-03T23:14:26.417Z,7.20
2023-04-03T23:16:53.052Z,7.15
2023-04-03T23:19:19.585Z,7.15
2023-04-03T23:21:46.657Z,7.04
2023-04-03T23:24:13.321Z,7.05
2023-04-03T23:26:39.789Z,7.04
2023-04-03T23:29:06.460Z,7.04
2023-04-03T23:31:33.008Z,7.04
2023-04-03T23:33:59.540Z,6.98
2023-04-03T23:36:26.391Z,6.91
2023-04-03T23:38:56.761Z,6.93
2023-04-03T23:41:23.372Z,6.92
2023-04-03T23:43:50.315Z,6.89
2023-04-03T23:46:16.966Z,6.85
2023-04-03T23:48:43.561Z,6.82
2023-04-03T23:51:10.096Z,6.83
2023-04-03T23:53:36.668Z,6.80
2023-04-03T23:56:03.362Z,6.73
2023-04-03T23:58:29.856Z,6.67
